Terminal Aerodrome Forecast
Issued by NWS

Home | Current Version | Previous Version | Text Only | Print | Product List | Glossary On
Versions: 1 2 3 4 5 6 7 8 9 10 11 12 13 14 15 16 17
163
FTUS45 KABQ 230520
TAFTCC
TAF
KTCC 230520Z 2306/2406 08010KT P6SM VCTS SCT050CB BKN100
      TEMPO 2306/2308 VRB18G25KT 6SM TSRA BKN040CB
     FM230800 02015G23KT 6SM -RA BR OVC045
     FM231400 02013KT P6SM VCSH SCT050 BKN090
     FM231800 35010G18KT P6SM SCT090=

USA.gov is the U.S. government's official web portal to all federal, state and local government web resources and services.